sensor_id;sensor_type;location;lat;lon;timestamp;P1;durP1;ratioP1;P2;durP2;ratioP2
73130;SDS011;64204;13.766;100.702;2024-03-02T00:00:22;23.48;;;14.60;;
73130;SDS011;64204;13.766;100.702;2024-03-02T00:05:19;24.25;;;13.25;;
73130;SDS011;64204;13.766;100.702;2024-03-02T00:07:53;29.35;;;15.60;;
73130;SDS011;64204;13.766;100.702;2024-03-02T00:10:41;28.27;;;14.25;;
73130;SDS011;64204;13.766;100.702;2024-03-02T00:13:08;28.05;;;14.48;;
73130;SDS011;64204;13.766;100.702;2024-03-02T00:15:48;26.17;;;14.10;;
73130;SDS011;64204;13.766;100.702;2024-03-02T00:18:23;27.77;;;16.02;;
73130;SDS011;64204;13.766;100.702;2024-03-02T00:20:56;22.00;;;13.38;;
73130;SDS011;64204;13.766;100.702;2024-03-02T00:23:23;26.55;;;14.30;;
73130;SDS011;64204;13.766;100.702;2024-03-02T00:25:51;20.05;;;13.13;;
73130;SDS011;64204;13.766;100.702;2024-03-02T00:30:51;29.35;;;14.05;;
73130;SDS011;64204;13.766;100.702;2024-03-02T00:33:34;24.13;;;13.57;;
73130;SDS011;64204;13.766;100.702;2024-03-02T00:36:32;18.92;;;12.40;;
73130;SDS011;64204;13.766;100.702;2024-03-02T00:38:57;21.85;;;13.10;;
73130;SDS011;64204;13.766;100.702;2024-03-02T00:41:27;25.73;;;13.75;;
73130;SDS011;64204;13.766;100.702;2024-03-02T00:43:59;20.85;;;12.95;;
73130;SDS011;64204;13.766;100.702;2024-03-02T00:46:40;23.27;;;14.40;;
73130;SDS011;64204;13.766;100.702;2024-03-02T00:51:48;23.77;;;13.82;;
73130;SDS011;64204;13.766;100.702;2024-03-02T00:54:18;19.25;;;13.18;;
73130;SDS011;64204;13.766;100.702;2024-03-02T00:56:46;21.73;;;12.13;;
73130;SDS011;64204;13.766;100.702;2024-03-02T00:59:13;26.27;;;13.85;;
73130;SDS011;64204;13.766;100.702;2024-03-02T01:01:39;21.33;;;12.60;;
73130;SDS011;64204;13.766;100.702;2024-03-02T01:04:06;20.90;;;13.23;;
73130;SDS011;64204;13.766;100.702;2024-03-02T01:06:32;18.45;;;12.38;;
73130;SDS011;64204;13.766;100.702;2024-03-02T01:08:59;24.50;;;13.68;;
73130;SDS011;64204;13.766;100.702;2024-03-02T01:11:25;21.08;;;12.50;;
73130;SDS011;64204;13.766;100.702;2024-03-02T01:13:51;20.98;;;12.75;;
73130;SDS011;64204;13.766;100.702;2024-03-02T01:16:18;21.42;;;13.20;;
73130;SDS011;64204;13.766;100.702;2024-03-02T01:18:50;22.60;;;12.55;;
73130;SDS011;64204;13.766;100.702;2024-03-02T01:21:17;19.70;;;12.70;;
73130;SDS011;64204;13.766;100.702;2024-03-02T01:23:43;22.77;;;12.90;;
73130;SDS011;64204;13.766;100.702;2024-03-02T01:26:10;25.23;;;13.23;;
73130;SDS011;64204;13.766;100.702;2024-03-02T01:28:36;20.05;;;12.85;;
73130;SDS011;64204;13.766;100.702;2024-03-02T01:31:02;20.52;;;11.30;;
73130;SDS011;64204;13.766;100.702;2024-03-02T01:33:29;23.92;;;13.20;;
73130;SDS011;64204;13.766;100.702;2024-03-02T01:35:55;20.50;;;13.30;;
73130;SDS011;64204;13.766;100.702;2024-03-02T01:38:22;26.67;;;14.38;;
73130;SDS011;64204;13.766;100.702;2024-03-02T01:40:48;19.00;;;11.95;;
73130;SDS011;64204;13.766;100.702;2024-03-02T01:43:15;16.48;;;11.65;;
73130;SDS011;64204;13.766;100.702;2024-03-02T01:45:41;20.15;;;10.95;;
73130;SDS011;64204;13.766;100.702;2024-03-02T01:48:07;17.65;;;10.60;;
73130;SDS011;64204;13.766;100.702;2024-03-02T01:50:34;16.38;;;10.27;;
73130;SDS011;64204;13.766;100.702;2024-03-02T01:53:00;18.85;;;10.15;;
73130;SDS011;64204;13.766;100.702;2024-03-02T01:55:30;18.85;;;10.27;;
73130;SDS011;64204;13.766;100.702;2024-03-02T01:57:56;15.32;;;10.40;;
73130;SDS011;64204;13.766;100.702;2024-03-02T02:00:23;17.27;;;10.55;;
73130;SDS011;64204;13.766;100.702;2024-03-02T02:02:51;14.85;;;9.63;;
73130;SDS011;64204;13.766;100.702;2024-03-02T02:05:18;15.32;;;10.07;;
73130;SDS011;64204;13.766;100.702;2024-03-02T02:07:44;16.75;;;9.75;;
73130;SDS011;64204;13.766;100.702;2024-03-02T02:10:11;15.57;;;10.05;;
73130;SDS011;64204;13.766;100.702;2024-03-02T02:12:38;16.60;;;10.20;;
73130;SDS011;64204;13.766;100.702;2024-03-02T02:15:21;16.63;;;11.10;;
73130;SDS011;64204;13.766;100.702;2024-03-02T02:17:50;15.10;;;10.10;;
73130;SDS011;64204;13.766;100.702;2024-03-02T02:20:17;16.42;;;11.25;;
73130;SDS011;64204;13.766;100.702;2024-03-02T02:25:30;17.02;;;10.98;;
73130;SDS011;64204;13.766;100.702;2024-03-02T02:27:57;15.50;;;10.70;;
73130;SDS011;64204;13.766;100.702;2024-03-02T02:30:27;20.20;;;12.02;;
73130;SDS011;64204;13.766;100.702;2024-03-02T02:32:55;21.15;;;12.18;;
73130;SDS011;64204;13.766;100.702;2024-03-02T02:35:22;16.98;;;11.07;;
73130;SDS011;64204;13.766;100.702;2024-03-02T02:37:52;17.17;;;12.13;;
73130;SDS011;64204;13.766;100.702;2024-03-02T02:40:20;19.63;;;13.45;;
73130;SDS011;64204;13.766;100.702;2024-03-02T02:42:46;18.90;;;12.30;;
73130;SDS011;64204;13.766;100.702;2024-03-02T02:45:12;19.58;;;13.15;;
73130;SDS011;64204;13.766;100.702;2024-03-02T02:47:40;17.67;;;11.40;;
73130;SDS011;64204;13.766;100.702;2024-03-02T02:50:07;17.63;;;11.98;;
73130;SDS011;64204;13.766;100.702;2024-03-02T02:52:34;17.75;;;11.20;;
73130;SDS011;64204;13.766;100.702;2024-03-02T02:55:04;16.83;;;11.57;;
73130;SDS011;64204;13.766;100.702;2024-03-02T02:57:33;17.58;;;12.05;;
73130;SDS011;64204;13.766;100.702;2024-03-02T03:00:11;16.90;;;12.10;;
73130;SDS011;64204;13.766;100.702;2024-03-02T03:02:44;19.55;;;13.18;;
73130;SDS011;64204;13.766;100.702;2024-03-02T03:05:13;21.95;;;12.55;;
73130;SDS011;64204;13.766;100.702;2024-03-02T03:07:40;20.33;;;12.15;;
73130;SDS011;64204;13.766;100.702;2024-03-02T03:10:07;19.02;;;12.23;;
73130;SDS011;64204;13.766;100.702;2024-03-02T03:12:36;16.92;;;11.82;;
73130;SDS011;64204;13.766;100.702;2024-03-02T03:15:07;17.52;;;12.23;;
73130;SDS011;64204;13.766;100.702;2024-03-02T03:17:37;21.15;;;12.38;;
73130;SDS011;64204;13.766;100.702;2024-03-02T03:20:03;22.88;;;12.90;;
73130;SDS011;64204;13.766;100.702;2024-03-02T03:22:31;19.23;;;12.40;;
73130;SDS011;64204;13.766;100.702;2024-03-02T03:24:57;19.17;;;11.82;;
73130;SDS011;64204;13.766;100.702;2024-03-02T03:27:24;22.02;;;13.73;;
73130;SDS011;64204;13.766;100.702;2024-03-02T03:29:50;18.83;;;12.90;;
73130;SDS011;64204;13.766;100.702;2024-03-02T03:32:16;16.95;;;12.60;;
73130;SDS011;64204;13.766;100.702;2024-03-02T03:34:43;16.23;;;11.75;;
73130;SDS011;64204;13.766;100.702;2024-03-02T03:37:09;19.35;;;12.55;;
73130;SDS011;64204;13.766;100.702;2024-03-02T03:39:35;17.98;;;12.13;;
73130;SDS011;64204;13.766;100.702;2024-03-02T03:42:02;23.27;;;13.52;;
73130;SDS011;64204;13.766;100.702;2024-03-02T03:44:28;19.35;;;13.43;;
73130;SDS011;64204;13.766;100.702;2024-03-02T03:46:55;27.08;;;13.20;;
73130;SDS011;64204;13.766;100.702;2024-03-02T03:49:21;18.50;;;13.05;;
73130;SDS011;64204;13.766;100.702;2024-03-02T03:51:48;24.00;;;12.88;;
73130;SDS011;64204;13.766;100.702;2024-03-02T03:54:14;18.45;;;12.68;;
73130;SDS011;64204;13.766;100.702;2024-03-02T03:56:41;21.15;;;13.43;;
73130;SDS011;64204;13.766;100.702;2024-03-02T03:59:07;19.92;;;13.32;;
73130;SDS011;64204;13.766;100.702;2024-03-02T04:01:34;20.20;;;13.00;;
73130;SDS011;64204;13.766;100.702;2024-03-02T04:04:00;20.40;;;12.55;;
73130;SDS011;64204;13.766;100.702;2024-03-02T04:06:29;17.98;;;12.60;;
73130;SDS011;64204;13.766;100.702;2024-03-02T04:08:56;20.63;;;13.18;;
73130;SDS011;64204;13.766;100.702;2024-03-02T04:11:22;19.35;;;12.93;;
73130;SDS011;64204;13.766;100.702;2024-03-02T04:13:49;21.65;;;13.57;;
73130;SDS011;64204;13.766;100.702;2024-03-02T04:16:15;19.33;;;13.45;;
73130;SDS011;64204;13.766;100.702;2024-03-02T04:18:41;20.73;;;13.43;;
73130;SDS011;64204;13.766;100.702;2024-03-02T04:21:08;18.80;;;13.75;;
73130;SDS011;64204;13.766;100.702;2024-03-02T04:23:34;18.75;;;13.82;;
73130;SDS011;64204;13.766;100.702;2024-03-02T04:26:00;19.98;;;12.52;;
73130;SDS011;64204;13.766;100.702;2024-03-02T04:28:27;20.83;;;13.77;;
73130;SDS011;64204;13.766;100.702;2024-03-02T04:30:53;15.93;;;13.20;;
73130;SDS011;64204;13.766;100.702;2024-03-02T04:33:19;20.98;;;13.23;;
73130;SDS011;64204;13.766;100.702;2024-03-02T04:35:46;19.52;;;12.77;;
73130;SDS011;64204;13.766;100.702;2024-03-02T04:38:12;14.88;;;13.07;;
73130;SDS011;64204;13.766;100.702;2024-03-02T04:40:38;22.33;;;13.27;;
73130;SDS011;64204;13.766;100.702;2024-03-02T04:43:05;18.65;;;12.35;;
73130;SDS011;64204;13.766;100.702;2024-03-02T04:45:31;19.15;;;13.48;;
73130;SDS011;64204;13.766;100.702;2024-03-02T04:47:58;20.92;;;13.57;;
73130;SDS011;64204;13.766;100.702;2024-03-02T04:50:24;21.08;;;13.60;;
73130;SDS011;64204;13.766;100.702;2024-03-02T04:52:50;22.85;;;14.45;;
73130;SDS011;64204;13.766;100.702;2024-03-02T04:55:17;23.88;;;14.50;;
73130;SDS011;64204;13.766;100.702;2024-03-02T04:58:09;24.40;;;15.30;;
73130;SDS011;64204;13.766;100.702;2024-03-02T05:00:35;20.77;;;15.43;;
73130;SDS011;64204;13.766;100.702;2024-03-02T05:03:02;24.50;;;15.95;;
73130;SDS011;64204;13.766;100.702;2024-03-02T05:05:29;20.75;;;15.32;;
73130;SDS011;64204;13.766;100.702;2024-03-02T05:07:55;20.25;;;14.90;;
73130;SDS011;64204;13.766;100.702;2024-03-02T05:10:21;23.60;;;16.00;;
73130;SDS011;64204;13.766;100.702;2024-03-02T05:12:48;23.73;;;15.02;;
73130;SDS011;64204;13.766;100.702;2024-03-02T05:15:24;24.67;;;16.80;;
73130;SDS011;64204;13.766;100.702;2024-03-02T05:17:51;21.45;;;16.25;;
73130;SDS011;64204;13.766;100.702;2024-03-02T05:20:18;21.02;;;16.33;;
73130;SDS011;64204;13.766;100.702;2024-03-02T05:22:45;28.65;;;17.40;;
73130;SDS011;64204;13.766;100.702;2024-03-02T05:25:12;26.48;;;15.40;;
73130;SDS011;64204;13.766;100.702;2024-03-02T05:27:38;21.52;;;14.57;;
73130;SDS011;64204;13.766;100.702;2024-03-02T05:30:05;22.92;;;15.75;;
73130;SDS011;64204;13.766;100.702;2024-03-02T05:32:35;23.83;;;15.75;;
73130;SDS011;64204;13.766;100.702;2024-03-02T05:35:01;20.23;;;14.65;;
73130;SDS011;64204;13.766;100.702;2024-03-02T05:37:28;25.38;;;16.13;;
73130;SDS011;64204;13.766;100.702;2024-03-02T05:39:54;27.17;;;14.80;;
73130;SDS011;64204;13.766;100.702;2024-03-02T05:42:21;22.77;;;15.32;;
73130;SDS011;64204;13.766;100.702;2024-03-02T05:44:47;21.48;;;15.68;;
73130;SDS011;64204;13.766;100.702;2024-03-02T05:47:13;20.23;;;15.65;;
73130;SDS011;64204;13.766;100.702;2024-03-02T05:49:40;20.25;;;15.25;;
73130;SDS011;64204;13.766;100.702;2024-03-02T05:52:06;27.75;;;16.67;;
73130;SDS011;64204;13.766;100.702;2024-03-02T05:54:32;22.65;;;16.83;;
73130;SDS011;64204;13.766;100.702;2024-03-02T05:56:59;23.42;;;16.85;;
73130;SDS011;64204;13.766;100.702;2024-03-02T05:59:42;29.98;;;16.52;;
73130;SDS011;64204;13.766;100.702;2024-03-02T06:02:09;22.55;;;17.08;;
73130;SDS011;64204;13.766;100.702;2024-03-02T06:04:35;23.00;;;17.25;;
73130;SDS011;64204;13.766;100.702;2024-03-02T06:07:02;21.25;;;16.55;;
73130;SDS011;64204;13.766;100.702;2024-03-02T06:09:28;23.13;;;17.45;;
73130;SDS011;64204;13.766;100.702;2024-03-02T06:11:54;24.90;;;18.05;;
73130;SDS011;64204;13.766;100.702;2024-03-02T06:14:21;23.98;;;16.95;;
73130;SDS011;64204;13.766;100.702;2024-03-02T06:16:47;23.40;;;17.35;;
73130;SDS011;64204;13.766;100.702;2024-03-02T06:19:13;24.10;;;17.70;;
73130;SDS011;64204;13.766;100.702;2024-03-02T06:21:40;23.35;;;16.92;;
73130;SDS011;64204;13.766;100.702;2024-03-02T06:24:07;22.25;;;16.63;;
73130;SDS011;64204;13.766;100.702;2024-03-02T06:26:33;23.63;;;16.55;;
73130;SDS011;64204;13.766;100.702;2024-03-02T06:28:59;22.60;;;16.77;;
73130;SDS011;64204;13.766;100.702;2024-03-02T06:31:27;26.20;;;18.48;;
73130;SDS011;64204;13.766;100.702;2024-03-02T06:33:54;24.38;;;17.42;;
73130;SDS011;64204;13.766;100.702;2024-03-02T06:36:20;21.13;;;15.93;;
73130;SDS011;64204;13.766;100.702;2024-03-02T06:38:46;21.55;;;17.52;;
73130;SDS011;64204;13.766;100.702;2024-03-02T06:41:13;23.85;;;17.05;;
73130;SDS011;64204;13.766;100.702;2024-03-02T06:43:39;22.05;;;16.65;;
73130;SDS011;64204;13.766;100.702;2024-03-02T06:46:05;19.85;;;15.55;;
73130;SDS011;64204;13.766;100.702;2024-03-02T06:48:34;22.98;;;16.10;;
73130;SDS011;64204;13.766;100.702;2024-03-02T06:51:01;23.30;;;16.35;;
73130;SDS011;64204;13.766;100.702;2024-03-02T06:53:27;21.63;;;16.67;;
73130;SDS011;64204;13.766;100.702;2024-03-02T06:55:53;20.77;;;16.00;;
73130;SDS011;64204;13.766;100.702;2024-03-02T06:58:20;20.48;;;15.55;;
73130;SDS011;64204;13.766;100.702;2024-03-02T07:00:46;23.27;;;16.35;;
73130;SDS011;64204;13.766;100.702;2024-03-02T07:03:13;22.60;;;16.63;;
73130;SDS011;64204;13.766;100.702;2024-03-02T07:05:40;20.98;;;15.43;;
73130;SDS011;64204;13.766;100.702;2024-03-02T07:08:06;24.02;;;16.48;;
73130;SDS011;64204;13.766;100.702;2024-03-02T07:10:33;20.90;;;16.13;;
73130;SDS011;64204;13.766;100.702;2024-03-02T07:12:59;24.70;;;16.17;;
73130;SDS011;64204;13.766;100.702;2024-03-02T07:15:26;21.90;;;16.13;;
73130;SDS011;64204;13.766;100.702;2024-03-02T07:17:52;20.98;;;14.98;;
73130;SDS011;64204;13.766;100.702;2024-03-02T07:20:19;24.27;;;15.68;;
73130;SDS011;64204;13.766;100.702;2024-03-02T07:22:45;22.90;;;16.85;;
73130;SDS011;64204;13.766;100.702;2024-03-02T07:25:12;26.13;;;16.50;;
73130;SDS011;64204;13.766;100.702;2024-03-02T07:27:38;26.85;;;18.75;;
73130;SDS011;64204;13.766;100.702;2024-03-02T07:30:06;21.20;;;15.77;;
73130;SDS011;64204;13.766;100.702;2024-03-02T07:32:32;21.98;;;15.73;;
73130;SDS011;64204;13.766;100.702;2024-03-02T07:34:59;25.50;;;16.65;;
73130;SDS011;64204;13.766;100.702;2024-03-02T07:37:26;24.23;;;15.68;;
73130;SDS011;64204;13.766;100.702;2024-03-02T07:39:53;22.17;;;17.17;;
73130;SDS011;64204;13.766;100.702;2024-03-02T07:42:19;20.92;;;16.13;;
73130;SDS011;64204;13.766;100.702;2024-03-02T07:44:46;22.73;;;16.38;;
73130;SDS011;64204;13.766;100.702;2024-03-02T07:47:12;25.02;;;17.13;;
73130;SDS011;64204;13.766;100.702;2024-03-02T07:49:38;25.35;;;16.77;;
73130;SDS011;64204;13.766;100.702;2024-03-02T07:52:05;21.08;;;15.38;;
73130;SDS011;64204;13.766;100.702;2024-03-02T07:54:32;23.65;;;16.17;;
73130;SDS011;64204;13.766;100.702;2024-03-02T07:56:58;21.10;;;15.35;;
73130;SDS011;64204;13.766;100.702;2024-03-02T07:59:25;26.60;;;16.35;;
73130;SDS011;64204;13.766;100.702;2024-03-02T08:01:52;21.08;;;15.68;;
73130;SDS011;64204;13.766;100.702;2024-03-02T08:04:20;19.42;;;16.13;;
73130;SDS011;64204;13.766;100.702;2024-03-02T08:06:47;22.90;;;16.50;;
73130;SDS011;64204;13.766;100.702;2024-03-02T08:09:13;26.30;;;15.35;;
73130;SDS011;64204;13.766;100.702;2024-03-02T08:11:39;25.80;;;15.02;;
73130;SDS011;64204;13.766;100.702;2024-03-02T08:14:06;20.17;;;15.00;;
73130;SDS011;64204;13.766;100.702;2024-03-02T08:16:32;19.75;;;14.57;;
73130;SDS011;64204;13.766;100.702;2024-03-02T08:18:59;24.40;;;17.33;;
73130;SDS011;64204;13.766;100.702;2024-03-02T08:21:25;19.35;;;15.65;;
73130;SDS011;64204;13.766;100.702;2024-03-02T08:23:56;20.80;;;15.48;;
73130;SDS011;64204;13.766;100.702;2024-03-02T08:26:23;24.95;;;16.27;;
73130;SDS011;64204;13.766;100.702;2024-03-02T08:28:50;22.52;;;15.40;;
73130;SDS011;64204;13.766;100.702;2024-03-02T08:31:16;21.27;;;15.23;;
73130;SDS011;64204;13.766;100.702;2024-03-02T08:33:42;18.27;;;14.32;;
73130;SDS011;64204;13.766;100.702;2024-03-02T08:36:09;22.48;;;15.13;;
73130;SDS011;64204;13.766;100.702;2024-03-02T08:38:35;21.80;;;14.30;;
73130;SDS011;64204;13.766;100.702;2024-03-02T08:41:02;21.73;;;14.10;;
73130;SDS011;64204;13.766;100.702;2024-03-02T08:43:29;20.90;;;15.15;;
73130;SDS011;64204;13.766;100.702;2024-03-02T08:45:55;19.10;;;15.52;;
73130;SDS011;64204;13.766;100.702;2024-03-02T08:48:22;22.45;;;14.57;;
73130;SDS011;64204;13.766;100.702;2024-03-02T08:50:48;18.30;;;13.68;;
73130;SDS011;64204;13.766;100.702;2024-03-02T08:53:14;21.42;;;13.65;;
73130;SDS011;64204;13.766;100.702;2024-03-02T08:55:46;20.55;;;13.98;;
73130;SDS011;64204;13.766;100.702;2024-03-02T08:58:13;23.23;;;14.13;;
73130;SDS011;64204;13.766;100.702;2024-03-02T09:00:39;19.83;;;13.65;;
73130;SDS011;64204;13.766;100.702;2024-03-02T09:03:06;22.85;;;14.02;;
73130;SDS011;64204;13.766;100.702;2024-03-02T09:05:33;19.38;;;14.15;;
73130;SDS011;64204;13.766;100.702;2024-03-02T09:07:59;19.90;;;14.18;;
73130;SDS011;64204;13.766;100.702;2024-03-02T09:10:25;19.27;;;13.27;;
73130;SDS011;64204;13.766;100.702;2024-03-02T09:12:52;22.17;;;13.20;;
73130;SDS011;64204;13.766;100.702;2024-03-02T09:15:18;21.02;;;15.40;;
73130;SDS011;64204;13.766;100.702;2024-03-02T09:17:44;22.33;;;13.57;;
73130;SDS011;64204;13.766;100.702;2024-03-02T09:20:11;21.38;;;13.45;;
73130;SDS011;64204;13.766;100.702;2024-03-02T09:22:39;19.15;;;13.10;;
73130;SDS011;64204;13.766;100.702;2024-03-02T09:25:07;21.80;;;13.82;;
73130;SDS011;64204;13.766;100.702;2024-03-02T09:27:37;18.85;;;14.43;;
73130;SDS011;64204;13.766;100.702;2024-03-02T09:30:07;18.25;;;13.23;;
73130;SDS011;64204;13.766;100.702;2024-03-02T09:32:36;19.65;;;14.02;;
73130;SDS011;64204;13.766;100.702;2024-03-02T09:35:03;22.83;;;13.95;;
73130;SDS011;64204;13.766;100.702;2024-03-02T09:37:29;20.23;;;13.45;;
73130;SDS011;64204;13.766;100.702;2024-03-02T09:39:56;24.83;;;13.18;;
73130;SDS011;64204;13.766;100.702;2024-03-02T09:42:22;17.15;;;12.15;;
73130;SDS011;64204;13.766;100.702;2024-03-02T09:44:49;20.17;;;13.57;;
73130;SDS011;64204;13.766;100.702;2024-03-02T09:47:15;21.23;;;14.15;;
73130;SDS011;64204;13.766;100.702;2024-03-02T09:49:42;24.48;;;15.10;;
73130;SDS011;64204;13.766;100.702;2024-03-02T09:52:10;21.70;;;13.75;;
73130;SDS011;64204;13.766;100.702;2024-03-02T09:54:36;19.60;;;12.27;;
73130;SDS011;64204;13.766;100.702;2024-03-02T09:57:03;20.83;;;13.98;;
73130;SDS011;64204;13.766;100.702;2024-03-02T09:59:30;20.33;;;13.45;;
73130;SDS011;64204;13.766;100.702;2024-03-02T10:01:57;20.48;;;13.75;;
73130;SDS011;64204;13.766;100.702;2024-03-02T10:04:27;20.15;;;14.82;;
73130;SDS011;64204;13.766;100.702;2024-03-02T10:07:09;24.33;;;15.23;;
73130;SDS011;64204;13.766;100.702;2024-03-02T10:09:37;21.98;;;14.95;;
73130;SDS011;64204;13.766;100.702;2024-03-02T10:12:04;23.10;;;14.05;;
73130;SDS011;64204;13.766;100.702;2024-03-02T10:14:32;19.17;;;13.90;;
73130;SDS011;64204;13.766;100.702;2024-03-02T10:17:08;19.35;;;13.90;;
73130;SDS011;64204;13.766;100.702;2024-03-02T10:19:35;26.63;;;16.67;;
73130;SDS011;64204;13.766;100.702;2024-03-02T10:22:02;20.15;;;13.77;;
73130;SDS011;64204;13.766;100.702;2024-03-02T10:24:41;22.25;;;14.23;;
73130;SDS011;64204;13.766;100.702;2024-03-02T10:29:49;20.35;;;13.65;;
73130;SDS011;64204;13.766;100.702;2024-03-02T10:32:15;21.23;;;13.98;;
73130;SDS011;64204;13.766;100.702;2024-03-02T10:34:43;20.63;;;14.32;;
73130;SDS011;64204;13.766;100.702;2024-03-02T10:37:11;22.55;;;14.57;;
73130;SDS011;64204;13.766;100.702;2024-03-02T10:39:38;23.08;;;15.18;;
73130;SDS011;64204;13.766;100.702;2024-03-02T10:42:05;23.50;;;14.27;;
73130;SDS011;64204;13.766;100.702;2024-03-02T10:44:32;19.85;;;15.02;;
73130;SDS011;64204;13.766;100.702;2024-03-02T10:47:00;24.23;;;15.20;;
73130;SDS011;64204;13.766;100.702;2024-03-02T10:49:30;24.02;;;14.70;;
73130;SDS011;64204;13.766;100.702;2024-03-02T10:52:00;21.23;;;14.48;;
73130;SDS011;64204;13.766;100.702;2024-03-02T10:54:27;19.88;;;15.43;;
73130;SDS011;64204;13.766;100.702;2024-03-02T10:57:01;25.45;;;15.25;;
73130;SDS011;64204;13.766;100.702;2024-03-02T10:59:33;26.40;;;14.80;;
73130;SDS011;64204;13.766;100.702;2024-03-02T11:02:03;20.88;;;13.48;;
73130;SDS011;64204;13.766;100.702;2024-03-02T11:04:32;22.92;;;15.60;;
73130;SDS011;64204;13.766;100.702;2024-03-02T11:07:04;26.58;;;13.95;;
73130;SDS011;64204;13.766;100.702;2024-03-02T11:09:50;29.73;;;15.52;;
73130;SDS011;64204;13.766;100.702;2024-03-02T11:15:18;21.13;;;13.43;;
73130;SDS011;64204;13.766;100.702;2024-03-02T11:17:46;21.63;;;13.73;;
73130;SDS011;64204;13.766;100.702;2024-03-02T11:20:13;23.38;;;13.98;;
73130;SDS011;64204;13.766;100.702;2024-03-02T11:22:40;21.65;;;13.65;;
73130;SDS011;64204;13.766;100.702;2024-03-02T11:25:11;24.27;;;13.88;;
73130;SDS011;64204;13.766;100.702;2024-03-02T11:33:03;24.13;;;14.98;;
73130;SDS011;64204;13.766;100.702;2024-03-02T11:35:34;21.45;;;14.35;;
73130;SDS011;64204;13.766;100.702;2024-03-02T11:38:02;19.42;;;14.25;;
73130;SDS011;64204;13.766;100.702;2024-03-02T11:40:29;22.00;;;13.85;;
73130;SDS011;64204;13.766;100.702;2024-03-02T11:42:56;20.27;;;13.65;;
73130;SDS011;64204;13.766;100.702;2024-03-02T11:45:28;21.17;;;13.65;;
73130;SDS011;64204;13.766;100.702;2024-03-02T11:48:00;24.98;;;14.35;;
73130;SDS011;64204;13.766;100.702;2024-03-02T11:50:36;27.98;;;16.17;;
73130;SDS011;64204;13.766;100.702;2024-03-02T11:53:07;26.70;;;15.93;;
73130;SDS011;64204;13.766;100.702;2024-03-02T11:55:35;28.13;;;16.27;;
73130;SDS011;64204;13.766;100.702;2024-03-02T11:58:03;23.38;;;14.38;;
73130;SDS011;64204;13.766;100.702;2024-03-02T12:00:30;26.60;;;15.20;;
73130;SDS011;64204;13.766;100.702;2024-03-02T12:03:00;21.92;;;14.15;;
73130;SDS011;64204;13.766;100.702;2024-03-02T12:05:27;21.65;;;13.65;;
73130;SDS011;64204;13.766;100.702;2024-03-02T12:07:57;24.10;;;15.30;;
73130;SDS011;64204;13.766;100.702;2024-03-02T12:10:25;20.35;;;13.57;;
73130;SDS011;64204;13.766;100.702;2024-03-02T12:12:58;21.23;;;14.10;;
73130;SDS011;64204;13.766;100.702;2024-03-02T12:15:32;22.00;;;13.77;;
73130;SDS011;64204;13.766;100.702;2024-03-02T12:18:00;21.05;;;13.25;;
73130;SDS011;64204;13.766;100.702;2024-03-02T12:20:28;20.77;;;13.98;;
73130;SDS011;64204;13.766;100.702;2024-03-02T12:22:57;20.40;;;13.32;;
73130;SDS011;64204;13.766;100.702;2024-03-02T12:25:25;23.42;;;14.45;;
73130;SDS011;64204;13.766;100.702;2024-03-02T12:27:56;22.10;;;14.68;;
73130;SDS011;64204;13.766;100.702;2024-03-02T12:30:24;19.73;;;13.75;;
73130;SDS011;64204;13.766;100.702;2024-03-02T12:32:52;27.77;;;15.07;;
73130;SDS011;64204;13.766;100.702;2024-03-02T12:35:18;25.83;;;15.10;;
73130;SDS011;64204;13.766;100.702;2024-03-02T12:37:45;23.58;;;15.60;;
73130;SDS011;64204;13.766;100.702;2024-03-02T12:40:15;24.33;;;15.25;;
73130;SDS011;64204;13.766;100.702;2024-03-02T12:42:44;22.95;;;15.73;;
73130;SDS011;64204;13.766;100.702;2024-03-02T12:45:13;28.83;;;16.83;;
73130;SDS011;64204;13.766;100.702;2024-03-02T12:47:40;26.75;;;16.63;;
73130;SDS011;64204;13.766;100.702;2024-03-02T12:50:08;26.38;;;16.25;;
73130;SDS011;64204;13.766;100.702;2024-03-02T12:52:35;29.08;;;16.33;;
73130;SDS011;64204;13.766;100.702;2024-03-02T12:55:02;30.42;;;17.02;;
73130;SDS011;64204;13.766;100.702;2024-03-02T12:57:31;30.60;;;17.48;;
73130;SDS011;64204;13.766;100.702;2024-03-02T13:00:02;27.88;;;17.88;;
73130;SDS011;64204;13.766;100.702;2024-03-02T13:02:39;28.77;;;17.83;;
73130;SDS011;64204;13.766;100.702;2024-03-02T13:05:06;34.47;;;18.00;;
73130;SDS011;64204;13.766;100.702;2024-03-02T13:07:37;27.58;;;18.02;;
73130;SDS011;64204;13.766;100.702;2024-03-02T13:10:04;30.55;;;19.15;;
73130;SDS011;64204;13.766;100.702;2024-03-02T13:12:33;29.77;;;18.88;;
73130;SDS011;64204;13.766;100.702;2024-03-02T13:14:59;25.55;;;17.48;;
73130;SDS011;64204;13.766;100.702;2024-03-02T13:17:27;32.75;;;18.73;;
73130;SDS011;64204;13.766;100.702;2024-03-02T13:19:56;33.05;;;19.05;;
73130;SDS011;64204;13.766;100.702;2024-03-02T13:22:23;32.50;;;19.98;;
73130;SDS011;64204;13.766;100.702;2024-03-02T13:24:50;26.73;;;19.55;;
73130;SDS011;64204;13.766;100.702;2024-03-02T13:27:19;29.13;;;19.85;;
73130;SDS011;64204;13.766;100.702;2024-03-02T13:29:49;33.33;;;20.48;;
73130;SDS011;64204;13.766;100.702;2024-03-02T13:32:16;31.75;;;19.95;;
73130;SDS011;64204;13.766;100.702;2024-03-02T13:34:46;32.28;;;19.88;;
73130;SDS011;64204;13.766;100.702;2024-03-02T13:37:12;30.23;;;19.13;;
73130;SDS011;64204;13.766;100.702;2024-03-02T13:39:38;27.88;;;18.70;;
73130;SDS011;64204;13.766;100.702;2024-03-02T13:42:07;37.33;;;19.90;;
73130;SDS011;64204;13.766;100.702;2024-03-02T13:44:38;32.58;;;19.63;;
73130;SDS011;64204;13.766;100.702;2024-03-02T13:47:05;34.05;;;20.83;;
73130;SDS011;64204;13.766;100.702;2024-03-02T13:49:31;32.38;;;19.27;;
73130;SDS011;64204;13.766;100.702;2024-03-02T13:52:08;32.78;;;20.08;;
73130;SDS011;64204;13.766;100.702;2024-03-02T13:54:46;32.95;;;20.73;;
73130;SDS011;64204;13.766;100.702;2024-03-02T13:57:15;31.52;;;20.27;;
73130;SDS011;64204;13.766;100.702;2024-03-02T13:59:45;31.52;;;21.30;;
73130;SDS011;64204;13.766;100.702;2024-03-02T14:02:11;36.20;;;20.65;;
73130;SDS011;64204;13.766;100.702;2024-03-02T14:04:38;31.55;;;21.35;;
73130;SDS011;64204;13.766;100.702;2024-03-02T14:07:05;32.70;;;21.60;;
73130;SDS011;64204;13.766;100.702;2024-03-02T14:09:36;36.03;;;21.27;;
73130;SDS011;64204;13.766;100.702;2024-03-02T14:12:02;32.75;;;21.75;;
73130;SDS011;64204;13.766;100.702;2024-03-02T14:14:29;29.25;;;21.05;;
73130;SDS011;64204;13.766;100.702;2024-03-02T14:16:56;33.45;;;21.83;;
73130;SDS011;64204;13.766;100.702;2024-03-02T14:19:26;37.80;;;20.95;;
73130;SDS011;64204;13.766;100.702;2024-03-02T14:21:52;36.33;;;22.85;;